createdAt,value
2023-02-05T00:01:50.988Z,79.40
2023-02-05T00:05:51.481Z,79.71
2023-02-05T00:09:55.271Z,79.60
2023-02-05T00:13:57.569Z,78.90
2023-02-05T00:17:58.340Z,77.03
2023-02-05T00:21:59.268Z,75.80
2023-02-05T00:26:03.094Z,75.70
2023-02-05T00:30:03.600Z,74.85
2023-02-05T00:34:04.426Z,75.34
2023-02-05T00:38:05.319Z,75.77
2023-02-05T00:42:09.052Z,75.88
2023-02-05T00:46:10.592Z,76.41
2023-02-05T00:50:12.758Z,75.74
2023-02-05T00:54:14.528Z,76.44
2023-02-05T00:58:17.762Z,76.95
2023-02-05T01:02:23.856Z,77.40
2023-02-05T01:06:24.545Z,77.22
2023-02-05T01:10:25.227Z,77.82
2023-02-05T01:14:28.979Z,78.27
2023-02-05T01:18:29.562Z,77.88
2023-02-05T01:22:30.184Z,79.36
2023-02-05T01:26:31.095Z,79.08
2023-02-05T01:30:34.237Z,79.17
2023-02-05T01:34:35.197Z,78.62
2023-02-05T01:38:36.685Z,77.98
2023-02-05T01:42:37.860Z,78.98
2023-02-05T01:46:42.756Z,78.91
2023-02-05T01:50:49.509Z,79.26
2023-02-05T01:54:53.348Z,78.41
2023-02-05T01:59:00.075Z,77.98
2023-02-05T02:03:04.210Z,77.50
2023-02-05T02:07:09.782Z,77.99
2023-02-05T02:11:17.387Z,78.84
2023-02-05T02:15:27.003Z,78.02
2023-02-05T02:19:44.699Z,77.90
2023-02-05T02:24:13.142Z,78.43
2023-02-05T02:28:28.668Z,79.24
2023-02-05T02:32:41.681Z,78.29
2023-02-05T02:36:55.915Z,77.97
2023-02-05T02:41:01.924Z,78.04
2023-02-05T02:45:11.817Z,77.83
2023-02-05T02:49:19.968Z,77.31
2023-02-05T02:53:27.274Z,77.32
2023-02-05T02:57:32.682Z,77.91
2023-02-05T03:01:46.947Z,77.61
2023-02-05T03:05:53.741Z,77.15
2023-02-05T03:10:01.388Z,77.92
2023-02-05T03:14:03.029Z,78.37
2023-02-05T03:18:12.123Z,77.78
2023-02-05T03:22:12.891Z,77.38
2023-02-05T03:26:30.135Z,76.96
2023-02-05T03:30:51.150Z,77.03
2023-02-05T03:35:16.183Z,77.19
2023-02-05T03:39:32.086Z,76.03
2023-02-05T03:43:50.408Z,76.14
2023-02-05T03:48:30.117Z,77.14
2023-02-05T03:52:41.211Z,76.37
2023-02-05T03:56:55.603Z,76.69
2023-02-05T04:00:57.285Z,76.67
2023-02-05T04:04:58.069Z,76.51
2023-02-05T04:09:01.296Z,75.74
2023-02-05T04:13:03.893Z,75.15
2023-02-05T04:17:07.742Z,76.23
2023-02-05T04:21:09.775Z,76.49
2023-02-05T04:25:16.992Z,76.45
2023-02-05T04:29:19.980Z,76.78
2023-02-05T04:33:23.531Z,77.71
2023-02-05T04:37:28.492Z,76.65
2023-02-05T04:41:31.803Z,76.65
2023-02-05T04:45:33.886Z,76.26
2023-02-05T04:49:36.547Z,75.51
2023-02-05T04:53:37.192Z,75.34
2023-02-05T04:57:40.625Z,75.75
2023-02-05T05:01:41.361Z,75.47
2023-02-05T05:05:42.076Z,75.77
2023-02-05T05:09:42.931Z,75.32
2023-02-05T05:13:46.881Z,75.87
2023-02-05T05:17:47.359Z,75.02
2023-02-05T05:21:48.573Z,75.00
2023-02-05T05:25:52.097Z,74.97
2023-02-05T05:29:55.329Z,75.98
2023-02-05T05:33:56.321Z,76.24
2023-02-05T05:38:00.095Z,75.66
2023-02-05T05:42:13.312Z,74.94
2023-02-05T05:46:22.127Z,75.21
2023-02-05T05:50:23.449Z,74.93
2023-02-05T05:54:24.182Z,74.82
2023-02-05T05:58:24.954Z,74.80
2023-02-05T06:02:28.328Z,74.52
2023-02-05T06:06:28.938Z,74.78
2023-02-05T06:10:33.177Z,74.80
2023-02-05T06:14:33.802Z,74.41
2023-02-05T06:18:37.017Z,74.63
2023-02-05T06:22:38.707Z,74.45
2023-02-05T06:26:40.934Z,75.46
2023-02-05T06:30:41.788Z,74.74
2023-02-05T06:34:45.214Z,75.10
2023-02-05T06:38:46.112Z,75.73
2023-02-05T06:42:46.554Z,75.52
2023-02-05T06:46:47.080Z,75.05
2023-02-05T06:50:50.751Z,74.72
2023-02-05T06:54:51.300Z,75.32
2023-02-05T06:58:51.956Z,75.24
2023-02-05T07:02:55.322Z,75.01
2023-02-05T07:06:58.611Z,74.64
2023-02-05T07:10:59.219Z,74.31
2023-02-05T07:14:59.863Z,74.67
2023-02-05T07:19:01.610Z,75.05
2023-02-05T07:23:08.284Z,75.48
2023-02-05T07:27:08.910Z,75.25
2023-02-05T07:31:11.878Z,75.32
2023-02-05T07:35:13.324Z,74.46
2023-02-05T07:39:16.258Z,73.73
2023-02-05T07:43:16.558Z,73.40
2023-02-05T07:47:17.606Z,72.67
2023-02-05T07:51:22.673Z,72.05
2023-02-05T07:55:26.070Z,72.38
2023-02-05T07:59:27.342Z,71.58
2023-02-05T08:03:27.676Z,72.22
2023-02-05T08:07:28.057Z,71.68
2023-02-05T08:11:32.644Z,70.85
2023-02-05T08:15:33.742Z,72.02
2023-02-05T08:19:34.573Z,71.75
2023-02-05T08:23:35.278Z,72.84
2023-02-05T08:27:41.493Z,71.06
2023-02-05T08:31:42.277Z,71.53
2023-02-05T08:35:42.893Z,70.91
2023-02-05T08:39:44.088Z,70.33
2023-02-05T08:43:52.570Z,67.03
2023-02-05T08:47:55.509Z,66.91
2023-02-05T08:51:56.366Z,65.04
2023-02-05T08:55:59.508Z,65.31
2023-02-05T09:00:02.801Z,63.38
2023-02-05T09:04:03.373Z,63.50
2023-02-05T09:08:04.067Z,66.25
2023-02-05T09:12:05.045Z,64.67
2023-02-05T09:16:08.911Z,63.50
2023-02-05T09:20:10.865Z,65.54
2023-02-05T09:24:15.721Z,68.52
2023-02-05T09:28:18.234Z,67.68
2023-02-05T09:32:21.017Z,66.58
2023-02-05T09:36:24.566Z,63.73
2023-02-05T09:40:30.315Z,63.32
2023-02-05T09:44:57.276Z,63.90
2023-02-05T09:49:06.233Z,64.19
2023-02-05T09:53:13.643Z,66.20
2023-02-05T09:57:19.525Z,65.27
2023-02-05T10:01:34.442Z,64.22
2023-02-05T10:05:50.027Z,58.24
2023-02-05T10:10:18.776Z,60.32
2023-02-05T10:14:32.760Z,59.90
2023-02-05T10:18:49.854Z,59.51
2023-02-05T10:23:15.988Z,60.60
2023-02-05T10:27:23.236Z,60.68
2023-02-05T10:31:44.127Z,60.00
2023-02-05T10:35:59.216Z,58.48
2023-02-05T10:40:03.966Z,58.72
2023-02-05T10:44:16.108Z,56.96
2023-02-05T10:48:43.912Z,55.49
2023-02-05T10:52:44.199Z,54.22
2023-02-05T10:56:47.530Z,52.53
2023-02-05T11:00:47.653Z,52.88
2023-02-05T11:04:55.717Z,51.60
2023-02-05T11:08:56.521Z,51.68
2023-02-05T11:13:05.298Z,53.29
2023-02-05T11:17:13.230Z,54.08
2023-02-05T11:21:15.002Z,54.97
2023-02-05T11:25:26.193Z,55.17
2023-02-05T11:29:29.372Z,56.34
2023-02-05T11:33:34.073Z,56.95
2023-02-05T11:37:34.190Z,57.06
2023-02-05T11:41:48.370Z,58.01
2023-02-05T11:45:56.542Z,57.61
2023-02-05T11:49:58.151Z,57.54
2023-02-05T11:54:02.970Z,57.26
2023-02-05T11:58:06.860Z,56.78
2023-02-05T12:02:42.681Z,57.55
2023-02-05T12:06:50.057Z,57.94
2023-02-05T12:11:01.131Z,58.33
2023-02-05T12:15:18.162Z,58.54
2023-02-05T12:19:26.922Z,58.71
2023-02-05T12:23:45.283Z,58.95
2023-02-05T12:28:10.795Z,58.14
2023-02-05T12:32:31.204Z,58.23
2023-02-05T12:36:51.204Z,58.34
2023-02-05T12:41:08.636Z,58.63
2023-02-05T12:45:36.414Z,59.12
2023-02-05T12:50:14.103Z,58.70
2023-02-05T12:54:43.710Z,57.92
2023-02-05T12:58:51.410Z,57.26
2023-02-05T13:03:07.339Z,57.70
2023-02-05T13:07:18.592Z,58.30
2023-02-05T13:11:28.417Z,57.95
2023-02-05T13:15:36.166Z,57.85
2023-02-05T13:19:42.272Z,58.62
2023-02-05T13:23:58.255Z,58.29
2023-02-05T13:28:37.225Z,56.79
2023-02-05T13:32:39.779Z,56.10
2023-02-05T13:37:23.577Z,55.98
2023-02-05T13:42:14.530Z,56.30
2023-02-05T13:46:55.188Z,55.71
2023-02-05T13:51:28.956Z,55.32
2023-02-05T13:56:15.944Z,55.36
2023-02-05T14:00:18.616Z,55.91
2023-02-05T14:04:30.593Z,54.84
2023-02-05T14:08:40.283Z,55.39
2023-02-05T14:12:41.614Z,55.71
2023-02-05T14:16:41.780Z,56.13
2023-02-05T14:20:45.767Z,56.29
2023-02-05T14:24:51.969Z,56.73
2023-02-05T14:28:54.427Z,56.32
2023-02-05T14:33:03.030Z,56.64
2023-02-05T14:37:06.210Z,57.13
2023-02-05T14:41:15.315Z,57.94
2023-02-05T14:45:19.786Z,57.34
2023-02-05T14:49:27.246Z,57.56
2023-02-05T14:53:30.002Z,57.59
2023-02-05T14:57:42.716Z,57.98
2023-02-05T15:01:55.079Z,58.91
2023-02-05T15:06:02.540Z,59.58
2023-02-05T15:10:10.453Z,59.68
2023-02-05T15:14:41.697Z,59.61
2023-02-05T15:18:44.780Z,60.21
2023-02-05T15:22:55.054Z,59.60
2023-02-05T15:27:04.863Z,59.22
2023-02-05T15:31:29.495Z,60.32
2023-02-05T15:35:33.524Z,60.74
2023-02-05T15:39:45.284Z,60.57
2023-02-05T15:44:02.743Z,60.70
2023-02-05T15:48:05.531Z,60.42
2023-02-05T15:52:07.455Z,60.86
2023-02-05T15:56:15.893Z,61.12
2023-02-05T16:00:27.273Z,61.16
2023-02-05T16:04:33.865Z,61.93
2023-02-05T16:08:33.912Z,61.61
2023-02-05T16:12:34.117Z,62.05
2023-02-05T16:16:42.495Z,62.39
2023-02-05T16:20:48.878Z,62.98
2023-02-05T16:24:53.215Z,63.74
2023-02-05T16:29:00.856Z,64.13
2023-02-05T16:33:07.138Z,64.33
2023-02-05T16:37:11.784Z,65.10
2023-02-05T16:41:25.690Z,66.30
2023-02-05T16:45:29.226Z,66.53
2023-02-05T16:49:34.979Z,66.89
2023-02-05T16:53:40.393Z,67.02
2023-02-05T16:57:47.465Z,67.98
2023-02-05T17:01:48.489Z,68.57
2023-02-05T17:05:59.496Z,68.51
2023-02-05T17:10:18.586Z,69.06
2023-02-05T17:14:35.801Z,69.12
2023-02-05T17:18:36.573Z,69.00
2023-02-05T17:22:39.829Z,70.02
2023-02-05T17:26:43.875Z,71.67
2023-02-05T17:30:45.855Z,72.15
2023-02-05T17:34:46.267Z,71.85
2023-02-05T17:38:50.472Z,73.89
2023-02-05T17:42:50.845Z,72.81
2023-02-05T17:46:51.186Z,73.12
2023-02-05T17:50:55.522Z,72.55
2023-02-05T17:54:59.139Z,72.48
2023-02-05T17:58:59.962Z,72.99
2023-02-05T18:03:00.455Z,72.85
2023-02-05T18:07:00.882Z,73.36
2023-02-05T18:11:03.902Z,74.28
2023-02-05T18:15:04.383Z,74.29
2023-02-05T18:19:04.823Z,75.05
2023-02-05T18:23:05.109Z,76.19
2023-02-05T18:27:08.412Z,76.51
2023-02-05T18:31:11.992Z,76.05
2023-02-05T18:35:14.701Z,75.31
2023-02-05T18:39:15.201Z,75.86
2023-02-05T18:43:17.980Z,75.54
2023-02-05T18:47:18.182Z,76.20
2023-02-05T18:51:23.322Z,77.01
2023-02-05T18:55:23.570Z,78.14
2023-02-05T18:59:26.794Z,77.68
2023-02-05T19:03:27.436Z,78.24
2023-02-05T19:07:27.583Z,77.71
2023-02-05T19:11:34.079Z,76.78
2023-02-05T19:15:36.787Z,76.63
2023-02-05T19:19:37.106Z,77.60
2023-02-05T19:23:37.710Z,77.54
2023-02-05T19:27:37.974Z,76.91
2023-02-05T19:31:41.281Z,76.63
2023-02-05T19:35:43.233Z,77.13
2023-02-05T19:39:43.580Z,76.85
2023-02-05T19:43:50.227Z,76.79
2023-02-05T19:47:52.942Z,76.57
2023-02-05T19:51:59.514Z,76.86
2023-02-05T19:56:07.535Z,77.32
2023-02-05T20:00:09.562Z,77.16
2023-02-05T20:04:28.801Z,78.01
2023-02-05T20:08:29.937Z,77.43
2023-02-05T20:12:30.177Z,77.23
2023-02-05T20:16:30.345Z,78.94
2023-02-05T20:20:34.022Z,78.81
2023-02-05T20:24:34.733Z,77.43
2023-02-05T20:28:57.186Z,77.94
2023-02-05T20:32:57.210Z,78.79
2023-02-05T20:37:04.270Z,78.88
2023-02-05T20:41:14.350Z,79.70
2023-02-05T20:45:14.666Z,79.36
2023-02-05T20:49:18.277Z,79.74
2023-02-05T20:53:21.677Z,80.88
2023-02-05T20:57:26.574Z,80.56
2023-02-05T21:01:32.446Z,80.35
2023-02-05T21:05:34.745Z,81.09
2023-02-05T21:09:38.543Z,80.59
2023-02-05T21:13:41.359Z,80.24
2023-02-05T21:17:44.868Z,81.11
2023-02-05T21:21:45.239Z,80.47
2023-02-05T21:25:49.034Z,80.42
2023-02-05T21:29:49.232Z,80.72
2023-02-05T21:33:54.051Z,81.35
2023-02-05T21:37:56.553Z,80.52
2023-02-05T21:41:59.135Z,80.38
2023-02-05T21:46:03.820Z,80.80
2023-02-05T21:50:03.954Z,80.76
2023-02-05T21:54:08.229Z,80.73
2023-02-05T21:58:11.042Z,80.88
2023-02-05T22:02:13.334Z,80.45
2023-02-05T22:06:13.704Z,80.97
2023-02-05T22:10:13.837Z,81.54
2023-02-05T22:14:16.606Z,80.45
2023-02-05T22:18:18.760Z,80.98
2023-02-05T22:22:18.979Z,80.50
2023-02-05T22:26:22.069Z,82.42
2023-02-05T22:30:24.872Z,80.81
2023-02-05T22:34:25.512Z,80.68
2023-02-05T22:38:26.018Z,80.21
2023-02-05T22:42:26.980Z,80.42
2023-02-05T22:46:32.655Z,82.33
2023-02-05T22:50:32.663Z,82.13
2023-02-05T22:54:32.777Z,81.63
2023-02-05T22:58:33.728Z,80.92
2023-02-05T23:02:36.525Z,80.32
2023-02-05T23:06:39.740Z,79.33
2023-02-05T23:10:39.875Z,80.79
2023-02-05T23:14:39.949Z,80.99
2023-02-05T23:18:44.505Z,81.40
2023-02-05T23:22:44.558Z,80.71
2023-02-05T23:26:48.146Z,81.09
2023-02-05T23:30:48.410Z,80.72
2023-02-05T23:34:51.272Z,81.16
2023-02-05T23:38:51.942Z,80.55
2023-02-05T23:42:52.441Z,79.13
2023-02-05T23:46:54.117Z,79.71
2023-02-05T23:50:59.177Z,78.90
2023-02-05T23:54:59.346Z,79.05
2023-02-05T23:59:00.545Z,78.00
